createdAt,value
2023-01-30T00:01:46.409Z,95637.47
2023-01-30T00:04:17.140Z,95636.63
2023-01-30T00:06:45.188Z,95635.69
2023-01-30T00:09:14.700Z,95635.69
2023-01-30T00:11:43.696Z,95628.81
2023-01-30T00:14:11.371Z,95621.81
2023-01-30T00:16:39.096Z,95619.22
2023-01-30T00:19:06.895Z,95611.25
2023-01-30T00:21:34.571Z,95606.19
2023-01-30T00:24:02.226Z,95600.13
2023-01-30T00:26:29.986Z,95600.97
2023-01-30T00:28:59.043Z,95606.19
2023-01-30T00:31:26.788Z,95606.19
2023-01-30T00:33:54.408Z,95604.41
2023-01-30T00:36:22.389Z,95598.22
2023-01-30T00:38:50.019Z,95596.56
2023-01-30T00:41:18.883Z,95587.91
2023-01-30T00:44:04.268Z,95588.75
2023-01-30T00:46:52.518Z,95581.88
2023-01-30T00:49:20.597Z,95581.88
2023-01-30T00:51:48.617Z,95575.72
2023-01-30T00:54:16.234Z,95568.84
2023-01-30T00:56:43.871Z,95573.25
2023-01-30T00:59:11.579Z,95561.84
2023-01-30T01:01:40.731Z,95558.41
2023-01-30T01:04:10.435Z,95555.00
2023-01-30T01:06:38.136Z,95552.38
2023-01-30T01:09:06.758Z,95546.19
2023-01-30T01:11:34.563Z,95542.75
2023-01-30T01:14:03.705Z,95539.34
2023-01-30T01:16:32.798Z,95535.91
2023-01-30T01:19:01.969Z,95524.66
2023-01-30T01:21:29.615Z,95526.31
2023-01-30T01:23:59.255Z,95527.13
2023-01-30T01:26:27.662Z,95526.31
2023-01-30T01:28:56.299Z,95536.75
2023-01-30T01:31:25.630Z,95534.13
2023-01-30T01:33:53.456Z,95534.81
2023-01-30T01:36:52.249Z,95533.00
2023-01-30T01:39:10.669Z,95527.94
2023-01-30T01:41:37.471Z,95524.50
2023-01-30T01:44:07.600Z,95523.56
2023-01-30T01:46:38.681Z,95523.56
2023-01-30T01:49:13.884Z,95517.50
2023-01-30T01:51:50.878Z,95507.09
2023-01-30T01:54:22.489Z,95507.91
2023-01-30T01:56:51.315Z,95498.44
2023-01-30T01:59:24.759Z,95497.47
2023-01-30T02:01:57.495Z,95501.03
2023-01-30T02:04:41.286Z,95503.66
2023-01-30T02:07:10.700Z,95515.88
2023-01-30T02:09:38.947Z,95520.97
2023-01-30T02:12:07.189Z,95519.28
2023-01-30T02:14:36.399Z,95526.16
2023-01-30T02:17:04.188Z,95518.34
2023-01-30T02:19:51.361Z,95521.91
2023-01-30T02:22:40.308Z,95531.53
2023-01-30T02:25:37.953Z,95521.09
2023-01-30T02:28:24.519Z,95533.16
2023-01-30T02:31:12.966Z,95533.16
2023-01-30T02:33:46.796Z,95535.78
2023-01-30T02:36:22.215Z,95524.50
2023-01-30T02:38:59.994Z,95521.09
2023-01-30T02:41:37.338Z,95517.50
2023-01-30T02:44:07.088Z,95523.72
2023-01-30T02:46:47.562Z,95530.69
2023-01-30T02:49:21.891Z,95535.91
2023-01-30T02:51:51.854Z,95544.56
2023-01-30T02:54:19.489Z,95542.91
2023-01-30T02:56:49.963Z,95537.69
2023-01-30T02:59:22.827Z,95550.72
2023-01-30T03:02:22.193Z,95547.19
2023-01-30T03:05:03.344Z,95556.78
2023-01-30T03:07:41.257Z,95562.00
2023-01-30T03:10:16.553Z,95555.13
2023-01-30T03:12:51.282Z,95556.88
2023-01-30T03:15:26.811Z,95564.59
2023-01-30T03:17:56.041Z,95555.94
2023-01-30T03:20:23.803Z,95553.34
2023-01-30T03:22:51.433Z,95542.91
2023-01-30T03:25:21.850Z,95527.41
2023-01-30T03:27:52.015Z,95523.00
2023-01-30T03:30:20.220Z,95516.00
2023-01-30T03:32:47.843Z,95512.44
2023-01-30T03:35:18.005Z,95512.31
2023-01-30T03:37:46.085Z,95516.69
2023-01-30T03:40:16.039Z,95517.66
2023-01-30T03:42:44.000Z,95519.28
2023-01-30T03:45:12.699Z,95496.81
2023-01-30T03:47:40.318Z,95512.44
2023-01-30T03:50:08.560Z,95507.22
2023-01-30T03:52:38.034Z,95501.03
2023-01-30T03:55:06.178Z,95496.66
2023-01-30T03:57:33.800Z,95491.59
2023-01-30T04:00:01.458Z,95494.19
2023-01-30T04:02:29.175Z,95492.53
2023-01-30T04:04:56.871Z,95491.59
2023-01-30T04:07:24.623Z,95483.75
2023-01-30T04:09:53.942Z,95483.63
2023-01-30T04:12:21.624Z,95488.97
2023-01-30T04:14:49.405Z,95490.75
2023-01-30T04:17:17.018Z,95515.06
2023-01-30T04:19:44.885Z,95525.47
2023-01-30T04:22:12.533Z,95521.91
2023-01-30T04:24:40.181Z,95514.06
2023-01-30T04:27:09.634Z,95517.50
2023-01-30T04:29:37.324Z,95498.44
2023-01-30T04:32:05.425Z,95500.09
2023-01-30T04:34:33.073Z,95502.69
2023-01-30T04:37:00.726Z,95507.91
2023-01-30T04:39:28.366Z,95518.34
2023-01-30T04:41:56.013Z,95504.34
2023-01-30T04:44:24.967Z,95504.34
2023-01-30T04:46:52.720Z,95494.03
2023-01-30T04:49:20.392Z,95481.00
2023-01-30T04:51:48.084Z,95472.34
2023-01-30T04:54:15.729Z,95465.38
2023-01-30T04:56:44.523Z,95444.50
2023-01-30T04:59:12.384Z,95457.69
2023-01-30T05:01:41.631Z,95466.34
2023-01-30T05:04:09.968Z,95468.81
2023-01-30T05:06:38.276Z,95469.63
2023-01-30T05:09:06.295Z,95467.81
2023-01-30T05:11:34.420Z,95473.88
2023-01-30T05:14:02.223Z,95470.31
2023-01-30T05:16:30.393Z,95461.66
2023-01-30T05:18:59.794Z,95436.25
2023-01-30T05:21:28.856Z,95428.44
2023-01-30T05:23:57.471Z,95433.50
2023-01-30T05:26:25.653Z,95428.28
2023-01-30T05:28:54.073Z,95428.19
2023-01-30T05:31:22.201Z,95441.06
2023-01-30T05:33:52.314Z,95438.31
2023-01-30T05:36:22.930Z,95433.25
2023-01-30T05:38:50.648Z,95440.13
2023-01-30T05:41:18.920Z,95436.69
2023-01-30T05:43:50.561Z,95441.06
2023-01-30T05:46:18.464Z,95447.13
2023-01-30T05:48:46.175Z,95441.06
2023-01-30T05:51:18.660Z,95436.69
2023-01-30T05:53:48.411Z,95442.84
2023-01-30T05:56:16.617Z,95438.47
2023-01-30T05:58:44.346Z,95423.66
2023-01-30T06:01:13.971Z,95418.44
2023-01-30T06:03:41.757Z,95412.25
2023-01-30T06:06:11.175Z,95425.44
2023-01-30T06:08:38.802Z,95439.28
2023-01-30T06:11:10.139Z,95433.09
2023-01-30T06:13:38.612Z,95423.66
2023-01-30T06:16:07.111Z,95420.88
2023-01-30T06:18:34.981Z,95418.44
2023-01-30T06:21:02.979Z,95422.66
2023-01-30T06:23:30.667Z,95420.06
2023-01-30T06:25:58.767Z,95427.88
2023-01-30T06:28:28.068Z,95426.94
2023-01-30T06:30:56.123Z,95419.13
2023-01-30T06:33:23.817Z,95426.94
2023-01-30T06:35:52.922Z,95414.72
2023-01-30T06:38:21.177Z,95420.75
2023-01-30T06:40:51.011Z,95413.06
2023-01-30T06:43:19.311Z,95408.69
2023-01-30T06:45:48.534Z,95413.91
2023-01-30T06:48:16.283Z,95406.91
2023-01-30T06:50:43.955Z,95414.72
2023-01-30T06:53:12.018Z,95418.13
2023-01-30T06:55:39.702Z,95427.78
2023-01-30T06:58:08.485Z,95432.16
2023-01-30T07:00:37.122Z,95449.44
2023-01-30T07:03:06.422Z,95441.75
2023-01-30T07:05:34.036Z,95446.03
2023-01-30T07:08:01.641Z,95448.63
2023-01-30T07:10:32.003Z,95451.25
2023-01-30T07:12:59.964Z,95447.66
2023-01-30T07:15:27.852Z,95451.25
2023-01-30T07:17:55.509Z,95443.53
2023-01-30T07:20:24.606Z,95452.03
2023-01-30T07:22:52.604Z,95453.84
2023-01-30T07:25:20.856Z,95465.91
2023-01-30T07:27:52.556Z,95458.91
2023-01-30T07:30:20.921Z,95452.88
2023-01-30T07:32:51.133Z,95459.88
2023-01-30T07:35:19.305Z,95457.25
2023-01-30T07:37:49.242Z,95460.69
2023-01-30T07:40:17.604Z,95451.25
2023-01-30T07:42:45.737Z,95450.25
2023-01-30T07:45:13.447Z,95457.25
2023-01-30T07:47:41.045Z,95440.66
2023-01-30T07:50:09.731Z,95445.03
2023-01-30T07:52:37.382Z,95443.41
2023-01-30T07:55:07.339Z,95436.38
2023-01-30T07:57:35.001Z,95432.84
2023-01-30T08:00:02.943Z,95426.78
2023-01-30T08:02:30.546Z,95412.91
2023-01-30T08:04:58.214Z,95407.69
2023-01-30T08:07:25.901Z,95410.31
2023-01-30T08:09:53.532Z,95400.72
2023-01-30T08:12:22.590Z,95396.47
2023-01-30T08:14:50.372Z,95390.28
2023-01-30T08:17:18.010Z,95399.88
2023-01-30T08:19:45.639Z,95405.94
2023-01-30T08:22:13.608Z,95399.06
2023-01-30T08:24:41.244Z,95401.53
2023-01-30T08:27:09.205Z,95398.09
2023-01-30T08:29:38.203Z,95397.16
2023-01-30T08:32:06.334Z,95398.78
2023-01-30T08:34:34.375Z,95393.72
2023-01-30T08:37:01.984Z,95397.94
2023-01-30T08:39:29.639Z,95400.56
2023-01-30T08:41:57.412Z,95372.03
2023-01-30T08:44:25.039Z,95378.06
2023-01-30T08:46:54.006Z,95377.22
2023-01-30T08:49:21.661Z,95386.84
2023-01-30T08:51:49.290Z,95384.22
2023-01-30T08:54:16.962Z,95387.66
2023-01-30T08:56:44.628Z,95374.63
2023-01-30T08:59:12.264Z,95372.03
2023-01-30T09:01:39.974Z,95365.97
2023-01-30T09:04:09.015Z,95371.88
2023-01-30T09:06:36.757Z,95364.19
2023-01-30T09:09:05.037Z,95353.75
2023-01-30T09:11:32.724Z,95374.63
2023-01-30T09:14:00.336Z,95384.13
2023-01-30T09:16:28.057Z,95386.72
2023-01-30T09:18:55.767Z,95369.25
2023-01-30T09:21:25.202Z,95364.88
2023-01-30T09:23:52.823Z,95365.84
2023-01-30T09:26:20.509Z,95369.25
2023-01-30T09:28:48.160Z,95365.69
2023-01-30T09:31:15.906Z,95359.66
2023-01-30T09:33:44.056Z,95370.91
2023-01-30T09:36:11.661Z,95375.19
2023-01-30T09:38:40.661Z,95377.91
2023-01-30T09:41:42.662Z,95372.59
2023-01-30T09:44:41.703Z,95371.75
2023-01-30T09:47:13.215Z,95351.72
2023-01-30T09:49:53.364Z,95355.28
2023-01-30T09:52:31.895Z,95352.66
2023-01-30T09:55:04.316Z,95325.75
2023-01-30T09:57:31.971Z,95330.03
2023-01-30T10:00:05.413Z,95331.66
2023-01-30T10:02:42.339Z,95330.97
2023-01-30T10:05:10.396Z,95316.00
2023-01-30T10:07:52.209Z,95321.22
2023-01-30T10:10:41.713Z,95321.22
2023-01-30T10:13:24.704Z,95346.34
2023-01-30T10:15:56.073Z,95350.72
2023-01-30T10:18:37.948Z,95349.78
2023-01-30T10:21:16.905Z,95314.38
2023-01-30T10:24:02.900Z,95311.59
2023-01-30T10:26:32.300Z,95303.78
2023-01-30T10:29:07.617Z,95291.56
2023-01-30T10:31:41.369Z,95290.59
2023-01-30T10:34:15.673Z,95295.00
2023-01-30T10:36:50.566Z,95290.59
2023-01-30T10:39:32.486Z,95268.94
2023-01-30T10:42:10.948Z,95271.66
2023-01-30T10:44:40.961Z,95281.97
2023-01-30T10:47:38.047Z,95286.34
2023-01-30T10:50:18.018Z,95286.19
2023-01-30T10:52:54.517Z,95283.75
2023-01-30T10:55:37.126Z,95264.66
2023-01-30T10:58:16.095Z,95263.72
2023-01-30T11:00:48.812Z,95263.72
2023-01-30T11:03:27.510Z,95262.88
2023-01-30T11:06:01.019Z,95271.66
2023-01-30T11:08:31.587Z,95276.75
2023-01-30T11:10:59.720Z,95272.34
2023-01-30T11:13:31.687Z,95260.94
2023-01-30T11:16:01.615Z,95248.06
2023-01-30T11:21:27.024Z,95222.78
2023-01-30T11:24:06.851Z,95225.38
2023-01-30T11:26:46.658Z,95204.50
2023-01-30T11:29:28.889Z,95200.13
2023-01-30T11:31:57.857Z,95191.47
2023-01-30T11:34:26.004Z,95185.31
2023-01-30T11:36:53.908Z,95195.06
2023-01-30T11:39:24.706Z,95191.47
2023-01-30T11:42:01.928Z,95183.66
2023-01-30T11:44:33.253Z,95184.47
2023-01-30T11:47:02.573Z,95183.53
2023-01-30T11:49:48.155Z,95174.88
2023-01-30T11:52:27.575Z,95167.06
2023-01-30T11:55:01.036Z,95176.66
2023-01-30T11:57:28.848Z,95173.22
2023-01-30T12:00:00.118Z,95156.78
2023-01-30T12:02:32.663Z,95163.63
2023-01-30T12:05:02.489Z,95161.00
2023-01-30T12:07:32.725Z,95161.84
2023-01-30T12:10:01.027Z,95171.44
2023-01-30T12:12:32.202Z,95162.66
2023-01-30T12:15:11.716Z,95153.84
2023-01-30T12:17:48.128Z,95156.47
2023-01-30T12:20:22.077Z,95168.56
2023-01-30T12:23:03.677Z,95154.69
2023-01-30T12:25:39.624Z,95145.91
2023-01-30T12:28:15.472Z,95141.63
2023-01-30T12:30:51.591Z,95144.09
2023-01-30T12:33:19.678Z,95132.03
2023-01-30T12:36:06.424Z,95125.03
2023-01-30T12:38:51.437Z,95129.44
2023-01-30T12:41:34.768Z,95104.16
2023-01-30T12:44:18.003Z,95118.84
2023-01-30T12:47:01.019Z,95106.63
2023-01-30T12:49:57.154Z,95090.13
2023-01-30T12:52:43.292Z,95091.91
2023-01-30T12:55:22.331Z,95102.34
2023-01-30T12:58:00.301Z,95090.97
2023-01-30T13:00:43.448Z,95083.97
2023-01-30T13:03:24.712Z,95098.78
2023-01-30T13:05:57.967Z,95098.78
2023-01-30T13:08:55.498Z,95109.22
2023-01-30T13:11:37.079Z,95121.44
2023-01-30T13:14:13.472Z,95100.56
2023-01-30T13:17:01.542Z,95107.56
2023-01-30T13:19:41.846Z,95099.75
2023-01-30T13:22:17.443Z,95102.34
2023-01-30T13:24:55.363Z,95106.63
2023-01-30T13:27:24.444Z,95124.06
2023-01-30T13:29:53.758Z,95129.28
2023-01-30T13:32:34.176Z,95149.31
2023-01-30T13:35:07.535Z,95140.53
2023-01-30T13:37:36.055Z,95140.69
2023-01-30T13:40:14.360Z,95131.06
2023-01-30T13:42:46.471Z,95142.31
2023-01-30T13:45:17.951Z,95140.69
2023-01-30T13:47:53.640Z,95151.91
2023-01-30T13:50:37.464Z,95144.91
2023-01-30T13:53:12.138Z,95155.34
2023-01-30T13:55:48.489Z,95149.31
2023-01-30T13:58:35.704Z,95142.31
2023-01-30T14:01:03.764Z,95150.13
2023-01-30T14:03:32.901Z,95144.09
2023-01-30T14:06:04.974Z,95149.31
2023-01-30T14:08:39.498Z,95148.50
2023-01-30T14:11:29.071Z,95164.00
2023-01-30T14:14:01.598Z,95173.63
2023-01-30T14:16:42.066Z,95163.19
2023-01-30T14:19:31.795Z,95165.78
2023-01-30T14:22:02.915Z,95173.47
2023-01-30T14:24:31.633Z,95182.25
2023-01-30T14:27:25.395Z,95190.91
2023-01-30T14:29:57.298Z,95198.75
2023-01-30T14:33:00.921Z,95207.38
2023-01-30T14:35:29.439Z,95220.41
2023-01-30T14:38:12.772Z,95222.22
2023-01-30T14:40:42.617Z,95219.63
2023-01-30T14:43:36.802Z,95225.63
2023-01-30T14:46:08.555Z,95230.84
2023-01-30T14:48:44.524Z,95235.25
2023-01-30T14:51:23.542Z,95228.41
2023-01-30T14:54:01.568Z,95241.28
2023-01-30T14:56:52.022Z,95248.31
2023-01-30T14:59:24.984Z,95242.25
2023-01-30T15:01:58.573Z,95251.72
2023-01-30T15:04:29.974Z,95242.25
2023-01-30T15:07:00.016Z,95247.47
2023-01-30T15:09:31.345Z,95254.31
2023-01-30T15:12:23.307Z,95250.09
2023-01-30T15:15:03.845Z,95263.97
2023-01-30T15:17:41.115Z,95277.00
2023-01-30T15:20:27.459Z,95289.06
2023-01-30T15:23:14.432Z,95284.81
2023-01-30T15:26:01.314Z,95287.44
2023-01-30T15:28:39.619Z,95286.59
2023-01-30T15:31:19.613Z,95290.84
2023-01-30T15:33:48.710Z,95297.88
2023-01-30T15:36:28.054Z,95309.94
2023-01-30T15:39:03.834Z,95321.34
2023-01-30T15:41:39.877Z,95319.69
2023-01-30T15:44:48.526Z,95326.56
2023-01-30T15:47:30.045Z,95325.75
2023-01-30T15:50:00.905Z,95330.13
2023-01-30T15:52:38.165Z,95335.34
2023-01-30T15:55:07.779Z,95337.94
2023-01-30T15:57:39.600Z,95342.22
2023-01-30T16:00:11.576Z,95343.84
2023-01-30T16:02:39.344Z,95361.28
2023-01-30T16:05:15.437Z,95374.31
2023-01-30T16:07:44.181Z,95375.16
2023-01-30T16:10:15.070Z,95396.84
2023-01-30T16:12:44.824Z,95386.56
2023-01-30T16:15:19.814Z,95394.41
2023-01-30T16:17:58.075Z,95394.41
2023-01-30T16:20:25.946Z,95390.97
2023-01-30T16:22:53.739Z,95409.06
2023-01-30T16:25:25.522Z,95410.72
2023-01-30T16:27:54.623Z,95426.91
2023-01-30T16:30:25.967Z,95437.19
2023-01-30T16:32:55.985Z,95427.59
2023-01-30T16:35:34.068Z,95425.97
2023-01-30T16:38:05.004Z,95434.59
2023-01-30T16:40:45.142Z,95437.34
2023-01-30T16:43:23.664Z,95430.34
2023-01-30T16:46:24.693Z,95432.13
2023-01-30T16:48:52.429Z,95440.09
2023-01-30T16:51:24.005Z,95434.88
2023-01-30T16:53:56.703Z,95428.84
2023-01-30T16:56:24.719Z,95428.84
2023-01-30T16:58:56.980Z,95421.84
2023-01-30T17:01:36.879Z,95420.19
2023-01-30T17:04:07.131Z,95424.59
2023-01-30T17:06:39.632Z,95420.19
2023-01-30T17:09:29.133Z,95424.59
2023-01-30T17:11:56.749Z,95432.44
2023-01-30T17:14:27.097Z,95428.16
2023-01-30T17:17:02.627Z,95436.81
2023-01-30T17:19:30.743Z,95444.63
2023-01-30T17:22:00.245Z,95453.28
2023-01-30T17:24:28.928Z,95452.47
2023-01-30T17:27:00.329Z,95456.84
2023-01-30T17:29:42.568Z,95471.69
2023-01-30T17:32:12.513Z,95482.94
2023-01-30T17:34:41.289Z,95490.78
2023-01-30T17:37:15.534Z,95509.84
2023-01-30T17:39:43.278Z,95504.63
2023-01-30T17:42:11.177Z,95514.25
2023-01-30T17:44:40.590Z,95512.47
2023-01-30T17:47:10.259Z,95515.06
2023-01-30T17:49:37.904Z,95511.63
2023-01-30T17:52:05.894Z,95519.47
2023-01-30T17:54:33.650Z,95515.91
2023-01-30T17:57:03.178Z,95506.56
2023-01-30T17:59:31.237Z,95502.03
2023-01-30T18:02:00.782Z,95512.47
2023-01-30T18:04:28.551Z,95522.91
2023-01-30T18:07:02.118Z,95525.50
2023-01-30T18:09:29.981Z,95534.16
2023-01-30T18:11:57.658Z,95536.78
2023-01-30T18:14:25.424Z,95537.56
2023-01-30T18:16:53.286Z,95542.94
2023-01-30T18:19:23.982Z,95536.78
2023-01-30T18:21:51.878Z,95542.78
2023-01-30T18:24:20.347Z,95549.94
2023-01-30T18:26:48.209Z,95556.00
2023-01-30T18:29:16.432Z,95546.38
2023-01-30T18:31:44.161Z,95536.91
2023-01-30T18:34:12.461Z,95550.63
2023-01-30T18:36:41.578Z,95549.00
2023-01-30T18:39:09.306Z,95563.66
2023-01-30T18:41:37.013Z,95562.88
2023-01-30T18:44:08.330Z,95564.66
2023-01-30T18:46:36.023Z,95561.22
2023-01-30T18:49:03.794Z,95557.66
2023-01-30T18:51:34.151Z,95566.16
2023-01-30T18:54:03.397Z,95564.50
2023-01-30T18:56:33.123Z,95567.94
2023-01-30T18:59:04.109Z,95580.00
2023-01-30T19:01:35.575Z,95574.00
2023-01-30T19:04:05.915Z,95581.66
2023-01-30T19:06:36.233Z,95575.63
2023-01-30T19:09:06.149Z,95595.66
2023-01-30T19:11:51.819Z,95586.19
2023-01-30T19:14:19.807Z,95599.09
2023-01-30T19:16:47.529Z,95603.38
2023-01-30T19:19:15.163Z,95600.75
2023-01-30T19:21:42.820Z,95609.28
2023-01-30T19:24:15.278Z,95611.06
2023-01-30T19:26:43.476Z,95602.28
2023-01-30T19:29:11.643Z,95600.63
2023-01-30T19:31:39.468Z,95599.78
2023-01-30T19:34:07.498Z,95609.28
2023-01-30T19:36:36.983Z,95606.66
2023-01-30T19:39:06.129Z,95619.72
2023-01-30T19:41:37.403Z,95625.88
2023-01-30T19:44:06.797Z,95625.78
2023-01-30T19:46:34.871Z,95620.66
2023-01-30T19:49:03.400Z,95637.16
2023-01-30T19:51:32.786Z,95636.31
2023-01-30T19:54:02.229Z,95641.44
2023-01-30T19:56:30.530Z,95644.16
2023-01-30T19:59:01.132Z,95658.97
2023-01-30T20:01:32.750Z,95665.84
2023-01-30T20:04:02.375Z,95660.63
2023-01-30T20:06:31.996Z,95660.63
2023-01-30T20:09:01.298Z,95667.63
2023-01-30T20:11:29.962Z,95666.78
2023-01-30T20:14:01.263Z,95655.56
2023-01-30T20:16:31.271Z,95651.97
2023-01-30T20:19:00.434Z,95648.53
2023-01-30T20:21:29.224Z,95642.38
2023-01-30T20:23:57.503Z,95637.16
2023-01-30T20:26:27.102Z,95647.44
2023-01-30T20:28:55.520Z,95649.94
2023-01-30T20:31:26.852Z,95636.06
2023-01-30T20:33:57.407Z,95636.06
2023-01-30T20:36:27.129Z,95638.66
2023-01-30T20:38:56.521Z,95624.78
2023-01-30T20:41:25.847Z,95643.06
2023-01-30T20:43:57.512Z,95635.38
2023-01-30T20:46:35.924Z,95642.22
2023-01-30T20:49:04.371Z,95641.44
2023-01-30T20:51:35.032Z,95643.19
2023-01-30T20:54:05.978Z,95637.97
2023-01-30T20:56:37.501Z,95638.81
2023-01-30T20:59:07.638Z,95643.06
2023-01-30T21:01:37.514Z,95639.63
2023-01-30T21:04:07.614Z,95644.03
2023-01-30T21:06:42.415Z,95636.19
2023-01-30T21:09:14.937Z,95648.41
2023-01-30T21:11:43.691Z,95648.41
2023-01-30T21:14:12.129Z,95637.16
2023-01-30T21:16:42.149Z,95642.38
2023-01-30T21:19:14.426Z,95647.59
2023-01-30T21:21:59.092Z,95644.97
2023-01-30T21:24:48.592Z,95659.69
2023-01-30T21:27:41.911Z,95662.28
2023-01-30T21:30:29.259Z,95659.69
2023-01-30T21:33:06.459Z,95651.84
2023-01-30T21:35:42.049Z,95659.69
2023-01-30T21:38:39.158Z,95660.63
2023-01-30T21:41:37.840Z,95658.03
2023-01-30T21:44:23.116Z,95646.75
2023-01-30T21:47:20.003Z,95651.97
2023-01-30T21:50:06.672Z,95640.69
2023-01-30T21:52:46.587Z,95645.13
2023-01-30T21:55:18.722Z,95657.34
2023-01-30T21:57:50.920Z,95670.38
2023-01-30T22:00:20.562Z,95661.56
2023-01-30T22:02:53.218Z,95674.63
2023-01-30T22:05:23.681Z,95680.81
2023-01-30T22:07:52.975Z,95683.44
2023-01-30T22:10:24.482Z,95688.66
2023-01-30T22:12:55.813Z,95689.59
2023-01-30T22:15:36.303Z,95687.81
2023-01-30T22:18:14.205Z,95687.81
2023-01-30T22:20:52.715Z,95702.53
2023-01-30T22:23:38.881Z,95704.28
2023-01-30T22:26:52.704Z,95705.13
2023-01-30T22:30:04.516Z,95703.47
2023-01-30T22:33:17.575Z,95705.13
2023-01-30T22:36:48.227Z,95696.63
2023-01-30T22:40:03.231Z,95692.19
2023-01-30T22:46:57.803Z,95694.94
2023-01-30T22:50:01.937Z,95695.78
2023-01-30T22:53:23.887Z,95698.38
2023-01-30T22:56:43.352Z,95698.38
2023-01-30T23:00:00.992Z,95685.50
2023-01-30T23:06:25.651Z,95695.94
2023-01-30T23:09:15.870Z,95706.34
2023-01-30T23:13:05.462Z,95714.03
2023-01-30T23:16:06.985Z,95712.38
2023-01-30T23:19:22.063Z,95713.22
2023-01-30T23:22:19.338Z,95720.22
2023-01-30T23:25:50.443Z,95719.41
2023-01-30T23:29:01.588Z,95732.44
2023-01-30T23:32:08.238Z,95732.44
2023-01-30T23:35:50.350Z,95738.47
2023-01-30T23:39:05.824Z,95736.84
2023-01-30T23:42:29.150Z,95726.41
2023-01-30T23:45:14.071Z,95723.78
2023-01-30T23:47:41.736Z,95732.56
2023-01-30T23:50:11.266Z,95729.00
2023-01-30T23:52:39.850Z,95736.84
2023-01-30T23:55:08.670Z,95748.91
2023-01-30T23:57:37.801Z,95755.09
